sensor_id;sensor_type;location;lat;lon;timestamp;P1;durP1;ratioP1;P2;durP2;ratioP2
78224;SDS011;67498;53.650;10.090;2023-05-10T00:02:12;9.20;;;0.98;;
78224;SDS011;67498;53.650;10.090;2023-05-10T00:04:37;4.93;;;1.73;;
78224;SDS011;67498;53.650;10.090;2023-05-10T00:07:02;5.37;;;0.97;;
78224;SDS011;67498;53.650;10.090;2023-05-10T00:09:28;2.80;;;0.90;;
78224;SDS011;67498;53.650;10.090;2023-05-10T00:11:53;4.63;;;0.97;;
78224;SDS011;67498;53.650;10.090;2023-05-10T00:14:18;6.63;;;1.30;;
78224;SDS011;67498;53.650;10.090;2023-05-10T00:16:44;3.50;;;0.97;;
78224;SDS011;67498;53.650;10.090;2023-05-10T00:19:09;3.03;;;0.90;;
78224;SDS011;67498;53.650;10.090;2023-05-10T00:21:34;2.80;;;0.63;;
78224;SDS011;67498;53.650;10.090;2023-05-10T00:23:59;1.87;;;0.40;;
78224;SDS011;67498;53.650;10.090;2023-05-10T00:26:25;3.33;;;1.10;;
78224;SDS011;67498;53.650;10.090;2023-05-10T00:28:50;3.43;;;1.10;;
78224;SDS011;67498;53.650;10.090;2023-05-10T00:31:15;4.27;;;1.10;;
78224;SDS011;67498;53.650;10.090;2023-05-10T00:33:40;2.30;;;0.50;;
78224;SDS011;67498;53.650;10.090;2023-05-10T00:36:06;4.23;;;1.20;;
78224;SDS011;67498;53.650;10.090;2023-05-10T00:38:32;4.27;;;0.90;;
78224;SDS011;67498;53.650;10.090;2023-05-10T00:40:58;4.47;;;1.23;;
78224;SDS011;67498;53.650;10.090;2023-05-10T00:43:23;4.13;;;1.20;;
78224;SDS011;67498;53.650;10.090;2023-05-10T00:45:48;4.17;;;1.13;;
78224;SDS011;67498;53.650;10.090;2023-05-10T00:48:13;3.83;;;0.80;;
78224;SDS011;67498;53.650;10.090;2023-05-10T00:50:38;3.37;;;0.80;;
78224;SDS011;67498;53.650;10.090;2023-05-10T00:53:05;3.42;;;0.90;;
78224;SDS011;67498;53.650;10.090;2023-05-10T00:55:30;3.10;;;0.80;;
78224;SDS011;67498;53.650;10.090;2023-05-10T00:57:56;3.70;;;1.05;;
78224;SDS011;67498;53.650;10.090;2023-05-10T01:00:21;2.73;;;0.67;;
78224;SDS011;67498;53.650;10.090;2023-05-10T01:02:46;3.33;;;1.00;;
78224;SDS011;67498;53.650;10.090;2023-05-10T01:05:12;3.03;;;0.87;;
78224;SDS011;67498;53.650;10.090;2023-05-10T01:07:37;4.10;;;1.10;;
78224;SDS011;67498;53.650;10.090;2023-05-10T01:10:03;2.85;;;0.65;;
78224;SDS011;67498;53.650;10.090;2023-05-10T01:12:28;5.20;;;1.40;;
78224;SDS011;67498;53.650;10.090;2023-05-10T01:14:54;4.97;;;2.07;;
78224;SDS011;67498;53.650;10.090;2023-05-10T01:17:19;2.80;;;0.75;;
78224;SDS011;67498;53.650;10.090;2023-05-10T01:19:45;4.85;;;1.23;;
78224;SDS011;67498;53.650;10.090;2023-05-10T01:24:38;8.87;;;1.10;;
78224;SDS011;67498;53.650;10.090;2023-05-10T01:27:12;2.53;;;0.60;;
78224;SDS011;67498;53.650;10.090;2023-05-10T01:29:45;4.30;;;1.13;;
78224;SDS011;67498;53.650;10.090;2023-05-10T01:32:16;4.28;;;1.30;;
78224;SDS011;67498;53.650;10.090;2023-05-10T01:37:16;3.10;;;0.73;;
78224;SDS011;67498;53.650;10.090;2023-05-10T01:40:03;7.45;;;1.10;;
78224;SDS011;67498;53.650;10.090;2023-05-10T01:42:32;1.47;;;0.33;;
78224;SDS011;67498;53.650;10.090;2023-05-10T01:47:44;3.25;;;1.00;;
78224;SDS011;67498;53.650;10.090;2023-05-10T01:50:29;3.63;;;0.80;;
78224;SDS011;67498;53.650;10.090;2023-05-10T01:52:56;2.17;;;0.50;;
78224;SDS011;67498;53.650;10.090;2023-05-10T01:55:23;4.50;;;0.93;;
78224;SDS011;67498;53.650;10.090;2023-05-10T01:57:51;4.00;;;1.05;;
78224;SDS011;67498;53.650;10.090;2023-05-10T02:00:17;3.60;;;1.10;;
78224;SDS011;67498;53.650;10.090;2023-05-10T02:02:44;3.58;;;1.02;;
78224;SDS011;67498;53.650;10.090;2023-05-10T02:05:10;3.53;;;0.90;;
78224;SDS011;67498;53.650;10.090;2023-05-10T02:07:36;2.60;;;0.70;;
78224;SDS011;67498;53.650;10.090;2023-05-10T02:10:02;2.97;;;0.82;;
78224;SDS011;67498;53.650;10.090;2023-05-10T02:12:29;3.38;;;0.80;;
78224;SDS011;67498;53.650;10.090;2023-05-10T02:14:54;5.67;;;0.97;;
78224;SDS011;67498;53.650;10.090;2023-05-10T02:17:19;2.70;;;0.77;;
78224;SDS011;67498;53.650;10.090;2023-05-10T02:19:45;4.22;;;1.00;;
78224;SDS011;67498;53.650;10.090;2023-05-10T02:22:12;3.35;;;1.00;;
78224;SDS011;67498;53.650;10.090;2023-05-10T02:24:37;3.63;;;0.70;;
78224;SDS011;67498;53.650;10.090;2023-05-10T02:27:03;7.93;;;1.10;;
78224;SDS011;67498;53.650;10.090;2023-05-10T02:29:29;3.37;;;1.07;;
78224;SDS011;67498;53.650;10.090;2023-05-10T02:31:56;2.40;;;0.57;;
78224;SDS011;67498;53.650;10.090;2023-05-10T02:34:22;3.70;;;1.13;;
78224;SDS011;67498;53.650;10.090;2023-05-10T02:36:48;3.08;;;0.75;;
78224;SDS011;67498;53.650;10.090;2023-05-10T02:39:14;5.75;;;1.15;;
78224;SDS011;67498;53.650;10.090;2023-05-10T02:41:40;1.37;;;0.30;;
78224;SDS011;67498;53.650;10.090;2023-05-10T02:44:07;3.58;;;0.98;;
78224;SDS011;67498;53.650;10.090;2023-05-10T02:46:34;4.28;;;1.30;;
78224;SDS011;67498;53.650;10.090;2023-05-10T02:48:59;3.37;;;0.93;;
78224;SDS011;67498;53.650;10.090;2023-05-10T02:51:25;4.68;;;1.00;;
78224;SDS011;67498;53.650;10.090;2023-05-10T02:53:53;4.75;;;1.17;;
78224;SDS011;67498;53.650;10.090;2023-05-10T02:56:34;2.33;;;0.50;;
78224;SDS011;67498;53.650;10.090;2023-05-10T02:59:00;2.05;;;0.47;;
78224;SDS011;67498;53.650;10.090;2023-05-10T03:01:26;4.87;;;1.00;;
78224;SDS011;67498;53.650;10.090;2023-05-10T03:03:51;4.77;;;0.83;;
78224;SDS011;67498;53.650;10.090;2023-05-10T03:06:16;8.30;;;1.20;;
78224;SDS011;67498;53.650;10.090;2023-05-10T03:08:42;3.13;;;0.90;;
78224;SDS011;67498;53.650;10.090;2023-05-10T03:16:08;3.42;;;0.93;;
78224;SDS011;67498;53.650;10.090;2023-05-10T03:21:18;3.53;;;1.30;;
78224;SDS011;67498;53.650;10.090;2023-05-10T03:23:50;2.78;;;0.80;;
78224;SDS011;67498;53.650;10.090;2023-05-10T03:26:26;3.38;;;0.77;;
78224;SDS011;67498;53.650;10.090;2023-05-10T03:28:52;3.42;;;1.20;;
78224;SDS011;67498;53.650;10.090;2023-05-10T03:31:18;4.13;;;1.07;;
78224;SDS011;67498;53.650;10.090;2023-05-10T03:33:46;5.37;;;1.73;;
78224;SDS011;67498;53.650;10.090;2023-05-10T03:36:12;3.40;;;0.88;;
78224;SDS011;67498;53.650;10.090;2023-05-10T03:38:37;5.23;;;1.20;;
78224;SDS011;67498;53.650;10.090;2023-05-10T03:41:02;3.15;;;0.68;;
78224;SDS011;67498;53.650;10.090;2023-05-10T03:43:27;3.77;;;1.17;;
78224;SDS011;67498;53.650;10.090;2023-05-10T03:45:52;5.73;;;1.00;;
78224;SDS011;67498;53.650;10.090;2023-05-10T03:48:18;3.43;;;0.90;;
78224;SDS011;67498;53.650;10.090;2023-05-10T03:50:43;6.93;;;0.97;;
78224;SDS011;67498;53.650;10.090;2023-05-10T03:53:08;4.07;;;0.97;;
78224;SDS011;67498;53.650;10.090;2023-05-10T03:55:33;3.58;;;0.82;;
78224;SDS011;67498;53.650;10.090;2023-05-10T03:58:01;3.92;;;1.02;;
78224;SDS011;67498;53.650;10.090;2023-05-10T04:00:26;4.07;;;1.10;;
78224;SDS011;67498;53.650;10.090;2023-05-10T04:02:51;4.17;;;1.10;;
78224;SDS011;67498;53.650;10.090;2023-05-10T04:05:16;1.77;;;0.57;;
78224;SDS011;67498;53.650;10.090;2023-05-10T04:07:41;3.33;;;0.90;;
78224;SDS011;67498;53.650;10.090;2023-05-10T04:10:07;4.17;;;1.37;;
78224;SDS011;67498;53.650;10.090;2023-05-10T04:12:32;13.93;;;0.70;;
78224;SDS011;67498;53.650;10.090;2023-05-10T04:14:57;3.23;;;0.93;;
78224;SDS011;67498;53.650;10.090;2023-05-10T04:17:22;10.55;;;1.00;;
78224;SDS011;67498;53.650;10.090;2023-05-10T04:19:47;2.63;;;0.70;;
78224;SDS011;67498;53.650;10.090;2023-05-10T04:22:13;4.17;;;1.27;;
78224;SDS011;67498;53.650;10.090;2023-05-10T04:24:38;2.80;;;0.80;;
78224;SDS011;67498;53.650;10.090;2023-05-10T04:27:03;2.83;;;0.82;;
78224;SDS011;67498;53.650;10.090;2023-05-10T04:29:28;3.33;;;0.90;;
78224;SDS011;67498;53.650;10.090;2023-05-10T04:31:54;3.63;;;1.33;;
78224;SDS011;67498;53.650;10.090;2023-05-10T04:34:20;4.00;;;1.27;;
78224;SDS011;67498;53.650;10.090;2023-05-10T04:36:45;2.38;;;0.70;;
78224;SDS011;67498;53.650;10.090;2023-05-10T04:39:10;3.45;;;1.00;;
78224;SDS011;67498;53.650;10.090;2023-05-10T04:41:35;4.45;;;0.95;;
78224;SDS011;67498;53.650;10.090;2023-05-10T04:44:02;4.03;;;0.70;;
78224;SDS011;67498;53.650;10.090;2023-05-10T04:46:27;2.10;;;0.40;;
78224;SDS011;67498;53.650;10.090;2023-05-10T04:48:52;3.63;;;1.13;;
78224;SDS011;67498;53.650;10.090;2023-05-10T04:51:17;3.20;;;1.00;;
78224;SDS011;67498;53.650;10.090;2023-05-10T04:53:43;5.13;;;1.02;;
78224;SDS011;67498;53.650;10.090;2023-05-10T04:56:08;2.72;;;1.00;;
78224;SDS011;67498;53.650;10.090;2023-05-10T04:58:33;3.47;;;1.10;;
78224;SDS011;67498;53.650;10.090;2023-05-10T05:01:04;11.30;;;1.23;;
78224;SDS011;67498;53.650;10.090;2023-05-10T05:03:29;4.05;;;0.77;;
78224;SDS011;67498;53.650;10.090;2023-05-10T05:05:55;1.98;;;0.43;;
78224;SDS011;67498;53.650;10.090;2023-05-10T05:08:20;3.43;;;0.77;;
78224;SDS011;67498;53.650;10.090;2023-05-10T05:10:45;3.23;;;0.80;;
78224;SDS011;67498;53.650;10.090;2023-05-10T05:13:12;2.27;;;0.67;;
78224;SDS011;67498;53.650;10.090;2023-05-10T05:15:37;2.70;;;0.65;;
78224;SDS011;67498;53.650;10.090;2023-05-10T05:18:02;6.50;;;0.95;;
78224;SDS011;67498;53.650;10.090;2023-05-10T05:20:27;3.57;;;0.63;;
78224;SDS011;67498;53.650;10.090;2023-05-10T05:22:52;3.70;;;0.93;;
78224;SDS011;67498;53.650;10.090;2023-05-10T05:25:18;2.75;;;0.85;;
78224;SDS011;67498;53.650;10.090;2023-05-10T05:27:43;3.97;;;1.10;;
78224;SDS011;67498;53.650;10.090;2023-05-10T05:30:08;4.40;;;1.13;;
78224;SDS011;67498;53.650;10.090;2023-05-10T05:32:33;4.30;;;1.10;;
78224;SDS011;67498;53.650;10.090;2023-05-10T05:34:59;3.77;;;1.40;;
78224;SDS011;67498;53.650;10.090;2023-05-10T05:37:24;4.23;;;1.10;;
78224;SDS011;67498;53.650;10.090;2023-05-10T05:39:49;4.20;;;0.90;;
78224;SDS011;67498;53.650;10.090;2023-05-10T05:42:14;4.53;;;1.23;;
78224;SDS011;67498;53.650;10.090;2023-05-10T05:44:41;4.47;;;1.52;;
78224;SDS011;67498;53.650;10.090;2023-05-10T05:47:06;7.53;;;1.90;;
78224;SDS011;67498;53.650;10.090;2023-05-10T05:49:32;3.90;;;1.13;;
78224;SDS011;67498;53.650;10.090;2023-05-10T05:52:00;3.90;;;1.13;;
78224;SDS011;67498;53.650;10.090;2023-05-10T05:54:26;4.63;;;1.35;;
78224;SDS011;67498;53.650;10.090;2023-05-10T05:56:53;4.53;;;1.50;;
78224;SDS011;67498;53.650;10.090;2023-05-10T05:59:18;2.17;;;0.63;;
78224;SDS011;67498;53.650;10.090;2023-05-10T06:01:43;6.57;;;1.40;;
78224;SDS011;67498;53.650;10.090;2023-05-10T06:04:08;4.63;;;1.10;;
78224;SDS011;67498;53.650;10.090;2023-05-10T06:06:34;4.18;;;1.35;;
78224;SDS011;67498;53.650;10.090;2023-05-10T06:08:59;4.18;;;1.35;;
78224;SDS011;67498;53.650;10.090;2023-05-10T06:11:24;4.05;;;1.33;;
78224;SDS011;67498;53.650;10.090;2023-05-10T06:13:50;2.55;;;0.40;;
78224;SDS011;67498;53.650;10.090;2023-05-10T06:16:15;3.23;;;0.90;;
78224;SDS011;67498;53.650;10.090;2023-05-10T06:18:41;4.17;;;1.40;;
78224;SDS011;67498;53.650;10.090;2023-05-10T06:21:06;4.37;;;1.33;;
78224;SDS011;67498;53.650;10.090;2023-05-10T06:23:31;4.17;;;1.30;;
78224;SDS011;67498;53.650;10.090;2023-05-10T06:25:56;8.13;;;1.53;;
78224;SDS011;67498;53.650;10.090;2023-05-10T06:28:21;3.83;;;1.30;;
78224;SDS011;67498;53.650;10.090;2023-05-10T06:30:47;3.63;;;1.10;;
78224;SDS011;67498;53.650;10.090;2023-05-10T06:33:12;4.03;;;1.50;;
78224;SDS011;67498;53.650;10.090;2023-05-10T06:35:38;3.70;;;1.27;;
78224;SDS011;67498;53.650;10.090;2023-05-10T06:38:03;4.87;;;1.40;;
78224;SDS011;67498;53.650;10.090;2023-05-10T06:40:29;7.13;;;1.43;;
78224;SDS011;67498;53.650;10.090;2023-05-10T06:42:54;3.50;;;1.10;;
78224;SDS011;67498;53.650;10.090;2023-05-10T06:45:19;4.83;;;1.60;;
78224;SDS011;67498;53.650;10.090;2023-05-10T06:47:44;7.03;;;1.40;;
78224;SDS011;67498;53.650;10.090;2023-05-10T06:50:10;4.78;;;1.13;;
78224;SDS011;67498;53.650;10.090;2023-05-10T06:52:39;4.95;;;1.50;;
78224;SDS011;67498;53.650;10.090;2023-05-10T06:55:04;6.37;;;1.93;;
78224;SDS011;67498;53.650;10.090;2023-05-10T06:57:30;3.92;;;1.33;;
78224;SDS011;67498;53.650;10.090;2023-05-10T06:59:55;3.50;;;1.00;;
78224;SDS011;67498;53.650;10.090;2023-05-10T07:02:21;2.13;;;0.50;;
78224;SDS011;67498;53.650;10.090;2023-05-10T07:04:46;3.43;;;0.83;;
78224;SDS011;67498;53.650;10.090;2023-05-10T07:07:11;4.27;;;1.47;;
78224;SDS011;67498;53.650;10.090;2023-05-10T07:09:37;5.40;;;1.23;;
78224;SDS011;67498;53.650;10.090;2023-05-10T07:12:02;6.20;;;1.38;;
78224;SDS011;67498;53.650;10.090;2023-05-10T07:14:27;5.23;;;1.63;;
78224;SDS011;67498;53.650;10.090;2023-05-10T07:16:52;4.73;;;1.27;;
78224;SDS011;67498;53.650;10.090;2023-05-10T07:19:18;4.13;;;1.30;;
78224;SDS011;67498;53.650;10.090;2023-05-10T07:21:43;9.03;;;1.37;;
78224;SDS011;67498;53.650;10.090;2023-05-10T07:24:08;4.43;;;1.35;;
78224;SDS011;67498;53.650;10.090;2023-05-10T07:26:34;3.95;;;1.17;;
78224;SDS011;67498;53.650;10.090;2023-05-10T07:28:59;5.77;;;1.90;;
78224;SDS011;67498;53.650;10.090;2023-05-10T07:31:24;4.03;;;1.30;;
78224;SDS011;67498;53.650;10.090;2023-05-10T07:33:49;3.83;;;1.10;;
78224;SDS011;67498;53.650;10.090;2023-05-10T07:36:14;3.70;;;1.10;;
78224;SDS011;67498;53.650;10.090;2023-05-10T07:38:40;7.87;;;1.40;;
78224;SDS011;67498;53.650;10.090;2023-05-10T07:41:05;5.07;;;1.53;;
78224;SDS011;67498;53.650;10.090;2023-05-10T07:43:30;5.53;;;1.40;;
78224;SDS011;67498;53.650;10.090;2023-05-10T07:45:55;5.00;;;1.20;;
78224;SDS011;67498;53.650;10.090;2023-05-10T07:48:22;4.05;;;1.23;;
78224;SDS011;67498;53.650;10.090;2023-05-10T07:50:47;5.23;;;1.23;;
78224;SDS011;67498;53.650;10.090;2023-05-10T07:53:12;4.20;;;1.23;;
78224;SDS011;67498;53.650;10.090;2023-05-10T07:55:37;3.78;;;1.05;;
78224;SDS011;67498;53.650;10.090;2023-05-10T07:58:03;3.83;;;0.93;;
78224;SDS011;67498;53.650;10.090;2023-05-10T08:00:28;4.90;;;1.30;;
78224;SDS011;67498;53.650;10.090;2023-05-10T08:02:53;4.23;;;1.30;;
78224;SDS011;67498;53.650;10.090;2023-05-10T08:05:18;3.25;;;1.00;;
78224;SDS011;67498;53.650;10.090;2023-05-10T08:07:43;3.97;;;1.10;;
78224;SDS011;67498;53.650;10.090;2023-05-10T08:10:09;3.37;;;1.20;;
78224;SDS011;67498;53.650;10.090;2023-05-10T08:12:35;5.13;;;1.27;;
78224;SDS011;67498;53.650;10.090;2023-05-10T08:15:01;5.27;;;1.23;;
78224;SDS011;67498;53.650;10.090;2023-05-10T08:17:26;9.83;;;1.90;;
78224;SDS011;67498;53.650;10.090;2023-05-10T08:19:51;10.10;;;1.25;;
78224;SDS011;67498;53.650;10.090;2023-05-10T08:22:16;4.07;;;1.13;;
78224;SDS011;67498;53.650;10.090;2023-05-10T08:24:41;4.33;;;1.30;;
78224;SDS011;67498;53.650;10.090;2023-05-10T08:27:07;4.43;;;1.20;;
78224;SDS011;67498;53.650;10.090;2023-05-10T08:29:33;2.75;;;0.73;;
78224;SDS011;67498;53.650;10.090;2023-05-10T08:31:58;5.85;;;1.08;;
78224;SDS011;67498;53.650;10.090;2023-05-10T08:34:23;3.83;;;1.30;;
78224;SDS011;67498;53.650;10.090;2023-05-10T08:36:48;9.18;;;1.45;;
78224;SDS011;67498;53.650;10.090;2023-05-10T08:39:13;2.67;;;0.97;;
78224;SDS011;67498;53.650;10.090;2023-05-10T08:41:39;5.60;;;1.53;;
78224;SDS011;67498;53.650;10.090;2023-05-10T08:44:05;6.43;;;1.23;;
78224;SDS011;67498;53.650;10.090;2023-05-10T08:46:33;3.57;;;1.10;;
78224;SDS011;67498;53.650;10.090;2023-05-10T08:48:59;3.58;;;0.93;;
78224;SDS011;67498;53.650;10.090;2023-05-10T08:51:26;2.30;;;0.60;;
78224;SDS011;67498;53.650;10.090;2023-05-10T08:53:52;4.87;;;1.37;;
78224;SDS011;67498;53.650;10.090;2023-05-10T08:56:17;4.07;;;1.30;;
78224;SDS011;67498;53.650;10.090;2023-05-10T08:58:43;3.37;;;1.00;;
78224;SDS011;67498;53.650;10.090;2023-05-10T09:01:08;4.50;;;1.20;;
78224;SDS011;67498;53.650;10.090;2023-05-10T09:03:34;5.55;;;1.10;;
78224;SDS011;67498;53.650;10.090;2023-05-10T09:06:00;4.37;;;1.20;;
78224;SDS011;67498;53.650;10.090;2023-05-10T09:08:25;3.87;;;1.07;;
78224;SDS011;67498;53.650;10.090;2023-05-10T09:10:51;4.75;;;1.23;;
78224;SDS011;67498;53.650;10.090;2023-05-10T09:13:16;3.77;;;0.90;;
78224;SDS011;67498;53.650;10.090;2023-05-10T09:15:43;4.47;;;1.33;;
78224;SDS011;67498;53.650;10.090;2023-05-10T09:18:08;7.82;;;2.17;;
78224;SDS011;67498;53.650;10.090;2023-05-10T09:20:33;4.32;;;1.40;;
78224;SDS011;67498;53.650;10.090;2023-05-10T09:22:58;5.50;;;1.40;;
78224;SDS011;67498;53.650;10.090;2023-05-10T09:25:23;4.23;;;1.20;;
78224;SDS011;67498;53.650;10.090;2023-05-10T09:27:49;4.37;;;1.40;;
78224;SDS011;67498;53.650;10.090;2023-05-10T09:30:22;4.90;;;1.50;;
78224;SDS011;67498;53.650;10.090;2023-05-10T09:32:48;3.85;;;1.08;;
78224;SDS011;67498;53.650;10.090;2023-05-10T09:35:16;6.00;;;1.47;;
78224;SDS011;67498;53.650;10.090;2023-05-10T09:37:43;4.97;;;1.42;;
78224;SDS011;67498;53.650;10.090;2023-05-10T09:40:11;5.20;;;1.25;;
78224;SDS011;67498;53.650;10.090;2023-05-10T09:42:36;4.63;;;1.40;;
78224;SDS011;67498;53.650;10.090;2023-05-10T09:45:02;3.93;;;1.03;;
78224;SDS011;67498;53.650;10.090;2023-05-10T09:47:27;8.93;;;1.33;;
78224;SDS011;67498;53.650;10.090;2023-05-10T09:49:53;3.47;;;1.13;;
78224;SDS011;67498;53.650;10.090;2023-05-10T09:52:20;4.88;;;1.40;;
78224;SDS011;67498;53.650;10.090;2023-05-10T09:54:52;6.50;;;1.40;;
78224;SDS011;67498;53.650;10.090;2023-05-10T09:57:20;4.35;;;1.55;;
78224;SDS011;67498;53.650;10.090;2023-05-10T09:59:46;6.15;;;1.88;;
78224;SDS011;67498;53.650;10.090;2023-05-10T10:02:11;6.13;;;1.43;;
78224;SDS011;67498;53.650;10.090;2023-05-10T10:04:40;4.47;;;1.37;;
78224;SDS011;67498;53.650;10.090;2023-05-10T10:07:05;8.32;;;1.75;;
78224;SDS011;67498;53.650;10.090;2023-05-10T10:09:31;6.00;;;2.00;;
78224;SDS011;67498;53.650;10.090;2023-05-10T10:11:56;4.40;;;1.43;;
78224;SDS011;67498;53.650;10.090;2023-05-10T10:14:22;3.30;;;0.70;;
78224;SDS011;67498;53.650;10.090;2023-05-10T10:16:48;6.30;;;2.00;;
78224;SDS011;67498;53.650;10.090;2023-05-10T10:19:14;4.70;;;1.52;;
78224;SDS011;67498;53.650;10.090;2023-05-10T10:21:39;3.77;;;1.23;;
78224;SDS011;67498;53.650;10.090;2023-05-10T10:24:05;9.93;;;2.10;;
78224;SDS011;67498;53.650;10.090;2023-05-10T10:26:30;5.13;;;1.60;;
78224;SDS011;67498;53.650;10.090;2023-05-10T10:29:09;7.30;;;2.03;;
78224;SDS011;67498;53.650;10.090;2023-05-10T10:31:45;5.47;;;2.10;;
78224;SDS011;67498;53.650;10.090;2023-05-10T10:34:27;5.80;;;2.23;;
78224;SDS011;67498;53.650;10.090;2023-05-10T10:36:53;5.82;;;2.33;;
78224;SDS011;67498;53.650;10.090;2023-05-10T10:39:18;6.28;;;2.45;;
78224;SDS011;67498;53.650;10.090;2023-05-10T10:41:52;6.05;;;2.55;;
78224;SDS011;67498;53.650;10.090;2023-05-10T10:44:33;6.07;;;2.40;;
78224;SDS011;67498;53.650;10.090;2023-05-10T10:47:05;6.25;;;2.20;;
78224;SDS011;67498;53.650;10.090;2023-05-10T10:49:34;6.75;;;2.20;;
78224;SDS011;67498;53.650;10.090;2023-05-10T10:54:50;7.82;;;2.10;;
78224;SDS011;67498;53.650;10.090;2023-05-10T10:57:17;10.43;;;2.60;;
78224;SDS011;67498;53.650;10.090;2023-05-10T10:59:43;10.35;;;2.47;;
78224;SDS011;67498;53.650;10.090;2023-05-10T11:04:55;7.90;;;3.33;;
78224;SDS011;67498;53.650;10.090;2023-05-10T11:07:20;8.23;;;2.80;;
78224;SDS011;67498;53.650;10.090;2023-05-10T11:09:46;5.70;;;2.27;;
78224;SDS011;67498;53.650;10.090;2023-05-10T11:12:11;6.80;;;2.47;;
78224;SDS011;67498;53.650;10.090;2023-05-10T11:14:36;12.02;;;1.50;;
78224;SDS011;67498;53.650;10.090;2023-05-10T11:17:02;6.73;;;2.43;;
78224;SDS011;67498;53.650;10.090;2023-05-10T11:20:02;8.27;;;2.00;;
78224;SDS011;67498;53.650;10.090;2023-05-10T11:22:28;6.90;;;2.60;;
78224;SDS011;67498;53.650;10.090;2023-05-10T11:24:56;8.57;;;1.48;;
78224;SDS011;67498;53.650;10.090;2023-05-10T11:27:23;6.73;;;2.47;;
78224;SDS011;67498;53.650;10.090;2023-05-10T11:29:51;5.67;;;2.33;;
78224;SDS011;67498;53.650;10.090;2023-05-10T11:32:16;5.07;;;1.67;;
78224;SDS011;67498;53.650;10.090;2023-05-10T11:34:41;4.87;;;2.00;;
78224;SDS011;67498;53.650;10.090;2023-05-10T11:37:06;4.17;;;1.67;;
78224;SDS011;67498;53.650;10.090;2023-05-10T11:39:32;8.77;;;2.27;;
78224;SDS011;67498;53.650;10.090;2023-05-10T11:41:58;6.38;;;1.52;;
78224;SDS011;67498;53.650;10.090;2023-05-10T11:44:28;3.83;;;1.37;;
78224;SDS011;67498;53.650;10.090;2023-05-10T11:46:53;4.95;;;1.52;;
78224;SDS011;67498;53.650;10.090;2023-05-10T11:49:19;6.07;;;2.23;;
78224;SDS011;67498;53.650;10.090;2023-05-10T11:51:45;5.55;;;2.55;;
78224;SDS011;67498;53.650;10.090;2023-05-10T11:54:11;8.00;;;2.67;;
78224;SDS011;67498;53.650;10.090;2023-05-10T11:56:39;7.70;;;2.27;;
78224;SDS011;67498;53.650;10.090;2023-05-10T11:59:05;6.80;;;2.80;;
78224;SDS011;67498;53.650;10.090;2023-05-10T12:01:30;4.93;;;1.90;;
78224;SDS011;67498;53.650;10.090;2023-05-10T12:03:56;4.27;;;1.20;;
78224;SDS011;67498;53.650;10.090;2023-05-10T12:06:28;5.57;;;1.90;;
78224;SDS011;67498;53.650;10.090;2023-05-10T12:08:55;6.82;;;2.90;;
78224;SDS011;67498;53.650;10.090;2023-05-10T12:11:24;2.40;;;0.73;;
78224;SDS011;67498;53.650;10.090;2023-05-10T12:13:49;6.25;;;2.38;;
78224;SDS011;67498;53.650;10.090;2023-05-10T12:16:15;6.87;;;2.83;;
78224;SDS011;67498;53.650;10.090;2023-05-10T12:18:41;5.45;;;1.98;;
78224;SDS011;67498;53.650;10.090;2023-05-10T12:21:07;7.20;;;3.05;;
78224;SDS011;67498;53.650;10.090;2023-05-10T12:23:34;3.13;;;1.13;;
78224;SDS011;67498;53.650;10.090;2023-05-10T12:26:02;6.07;;;2.87;;
78224;SDS011;67498;53.650;10.090;2023-05-10T12:28:29;6.07;;;2.60;;
78224;SDS011;67498;53.650;10.090;2023-05-10T12:30:55;6.35;;;2.58;;
78224;SDS011;67498;53.650;10.090;2023-05-10T12:33:20;5.63;;;2.20;;
78224;SDS011;67498;53.650;10.090;2023-05-10T12:35:48;7.35;;;3.17;;
78224;SDS011;67498;53.650;10.090;2023-05-10T12:40:59;8.07;;;2.85;;
78224;SDS011;67498;53.650;10.090;2023-05-10T12:43:24;6.68;;;2.85;;
78224;SDS011;67498;53.650;10.090;2023-05-10T12:45:49;8.33;;;3.30;;
78224;SDS011;67498;53.650;10.090;2023-05-10T12:48:15;8.73;;;3.37;;
78224;SDS011;67498;53.650;10.090;2023-05-10T12:50:40;8.87;;;3.90;;
78224;SDS011;67498;53.650;10.090;2023-05-10T12:53:05;11.17;;;4.00;;
78224;SDS011;67498;53.650;10.090;2023-05-10T12:55:30;7.67;;;3.00;;
78224;SDS011;67498;53.650;10.090;2023-05-10T12:57:56;7.20;;;2.97;;
78224;SDS011;67498;53.650;10.090;2023-05-10T13:00:21;6.23;;;2.00;;
78224;SDS011;67498;53.650;10.090;2023-05-10T13:02:46;6.60;;;2.53;;
78224;SDS011;67498;53.650;10.090;2023-05-10T13:05:11;7.07;;;3.00;;
78224;SDS011;67498;53.650;10.090;2023-05-10T13:07:38;10.23;;;3.30;;
78224;SDS011;67498;53.650;10.090;2023-05-10T13:10:03;7.50;;;2.37;;
78224;SDS011;67498;53.650;10.090;2023-05-10T13:12:28;6.07;;;2.60;;
78224;SDS011;67498;53.650;10.090;2023-05-10T13:14:54;5.78;;;1.77;;
78224;SDS011;67498;53.650;10.090;2023-05-10T13:17:19;5.23;;;1.90;;
78224;SDS011;67498;53.650;10.090;2023-05-10T13:19:44;7.80;;;3.10;;
78224;SDS011;67498;53.650;10.090;2023-05-10T13:22:10;4.57;;;1.60;;
78224;SDS011;67498;53.650;10.090;2023-05-10T13:24:35;7.83;;;2.37;;
78224;SDS011;67498;53.650;10.090;2023-05-10T13:27:00;5.83;;;1.80;;
78224;SDS011;67498;53.650;10.090;2023-05-10T13:29:25;6.63;;;2.03;;
78224;SDS011;67498;53.650;10.090;2023-05-10T13:31:50;6.40;;;1.97;;
78224;SDS011;67498;53.650;10.090;2023-05-10T13:34:16;7.30;;;2.23;;
78224;SDS011;67498;53.650;10.090;2023-05-10T13:36:41;6.43;;;2.23;;
78224;SDS011;67498;53.650;10.090;2023-05-10T13:39:07;10.27;;;2.27;;
78224;SDS011;67498;53.650;10.090;2023-05-10T13:41:32;5.00;;;1.57;;
78224;SDS011;67498;53.650;10.090;2023-05-10T13:43:57;6.37;;;1.90;;
78224;SDS011;67498;53.650;10.090;2023-05-10T13:46:22;5.15;;;1.75;;
78224;SDS011;67498;53.650;10.090;2023-05-10T13:48:48;5.73;;;2.33;;
78224;SDS011;67498;53.650;10.090;2023-05-10T13:51:13;7.70;;;2.07;;
78224;SDS011;67498;53.650;10.090;2023-05-10T13:53:38;5.83;;;1.80;;
78224;SDS011;67498;53.650;10.090;2023-05-10T13:56:03;6.80;;;2.10;;
78224;SDS011;67498;53.650;10.090;2023-05-10T13:58:29;5.57;;;2.07;;
78224;SDS011;67498;53.650;10.090;2023-05-10T14:00:54;6.57;;;1.48;;
78224;SDS011;67498;53.650;10.090;2023-05-10T14:03:19;7.00;;;2.17;;
78224;SDS011;67498;53.650;10.090;2023-05-10T14:05:44;4.70;;;1.70;;
78224;SDS011;67498;53.650;10.090;2023-05-10T14:08:10;4.57;;;1.42;;
78224;SDS011;67498;53.650;10.090;2023-05-10T14:10:35;6.93;;;2.10;;
78224;SDS011;67498;53.650;10.090;2023-05-10T14:13:01;4.80;;;1.58;;
78224;SDS011;67498;53.650;10.090;2023-05-10T14:15:28;5.00;;;1.73;;
78224;SDS011;67498;53.650;10.090;2023-05-10T14:17:53;6.57;;;1.97;;
78224;SDS011;67498;53.650;10.090;2023-05-10T14:20:18;6.57;;;2.20;;
78224;SDS011;67498;53.650;10.090;2023-05-10T14:22:43;6.17;;;1.63;;
78224;SDS011;67498;53.650;10.090;2023-05-10T14:25:08;3.85;;;1.33;;
78224;SDS011;67498;53.650;10.090;2023-05-10T14:27:34;4.77;;;1.80;;
78224;SDS011;67498;53.650;10.090;2023-05-10T14:29:59;4.87;;;1.80;;
78224;SDS011;67498;53.650;10.090;2023-05-10T14:32:24;5.17;;;1.87;;
78224;SDS011;67498;53.650;10.090;2023-05-10T14:34:51;5.10;;;1.75;;
78224;SDS011;67498;53.650;10.090;2023-05-10T14:37:16;2.08;;;0.57;;
78224;SDS011;67498;53.650;10.090;2023-05-10T14:39:42;10.27;;;4.97;;
78224;SDS011;67498;53.650;10.090;2023-05-10T14:42:07;5.17;;;1.80;;
78224;SDS011;67498;53.650;10.090;2023-05-10T14:44:32;5.57;;;2.27;;
78224;SDS011;67498;53.650;10.090;2023-05-10T14:46:58;7.07;;;1.47;;
78224;SDS011;67498;53.650;10.090;2023-05-10T14:49:23;5.45;;;1.55;;
78224;SDS011;67498;53.650;10.090;2023-05-10T14:51:50;4.32;;;1.42;;